Arroyo, Texas
Current Conditions -  °F | °C
As of 12:52 PM on Sunday 23 Nov 2014 (Local Time) from KHRL Reporting Station
Clear Clear  
Wind Chill: 79°   Ceiling: Unl
Heat Index: 81°   Visibility: 10mi
Dew Point: 64°   Wind: 10mph
Humidity: 60%   Direction: 210°SSW
Pressure: 29.68"   Gusts: NA
Location:  26.2089°N, 97.6849°W
Report Text: KHRL 231852Z 21009KT 10SM CLR 26/18 A2968 RMK AO2 SLP051 T02610178
Loading
Personal Weather Stations






























Interactive Weather Map New forecast layout! Learn more

10-Day Weather Forecast

Advertisements
Track Severe Weather on mobile